< < Back
Terminal Aerodrome Forecast


Current Version              Previous Versions:   1  2  3  4  5  6  7  8  9  

Terminal Aerodrome Forecast

445
FTUS42 KILM 020944 AAD
TAFFLO
TAF AMD
KFLO 020944Z 0210/0306 21005KT 5SM BR SCT002 BKN250 WS010/24040KT
     FM021400 23010KT P6SM VCTS SCT035CB SCT250
     FM022200 20010KT P6SM VCSH SCT040 OVC250
     FM030000 19008KT P6SM OVC250 PROB30 0300/0304 P6SM TS BKN050CB=

Latest METAR

359
SAUS70 KWBC 021000 RRJ
MTRFLO
METAR KFLO 020953Z AUTO 20005KT 5SM BR SCT003 21/20 A3001 RMK AO2 SLP160
T02060200


USA.gov is the U.S. government's official web portal to all federal, state and local government web resources and services.